Time;durP1;ratioP1;P1;durP2;ratioP2;P2;SDS_P1;SDS_P2;PMS_P1;PMS_P2;Temp;Humidity;BMP_temperature;BMP_pressure;BME280_temperature;BME280_humidity;BME280_pressure;Samples;Min_cycle;Max_cycle;Signal;HPM_P1;HPM_P2
2023/08/22 00:00:50;;;;;;;12.20;6.23;;;;;;;;;;5035270;28;20186;-66
2023/08/22 00:03:16;;;;;;;8.03;5.93;;;;;;;;;;5053129;28;20209;-66
2023/08/22 00:05:42;;;;;;;9.40;6.40;;;;;;;;;;5053766;28;20655;-66
2023/08/22 00:08:08;;;;;;;10.77;6.70;;;;;;;;;;5053185;28;20707;-67
2023/08/22 00:10:34;;;;;;;14.83;6.83;;;;;;;;;;5052974;28;20175;-65
2023/08/22 00:13:01;;;;;;;10.30;6.63;;;;;;;;;;5053218;28;20202;-67
2023/08/22 00:15:27;;;;;;;10.97;6.20;;;;;;;;;;5035295;28;20188;-66
2023/08/22 00:17:53;;;;;;;15.90;7.27;;;;;;;;;;5035418;28;20265;-67
2023/08/22 00:20:19;;;;;;;11.83;6.40;;;;;;;;;;5052938;28;20178;-67
2023/08/22 00:22:45;;;;;;;9.70;6.30;;;;;;;;;;5035108;28;20194;-66
2023/08/22 00:25:11;;;;;;;9.43;6.50;;;;;;;;;;5052914;28;20260;-66
2023/08/22 00:27:38;;;;;;;12.17;6.60;;;;;;;;;;5053586;28;20186;-66
2023/08/22 00:30:04;;;;;;;13.57;6.63;;;;;;;;;;5034836;28;20179;-67
2023/08/22 00:32:31;;;;;;;13.80;7.37;;;;;;;;;;5035112;28;20194;-68
2023/08/22 00:34:57;;;;;;;10.50;6.63;;;;;;;;;;5035346;28;20182;-67
2023/08/22 00:37:22;;;;;;;12.57;6.40;;;;;;;;;;5052776;28;20186;-67
2023/08/22 00:39:49;;;;;;;13.63;7.07;;;;;;;;;;5053043;28;20209;-68
2023/08/22 00:42:16;;;;;;;12.60;7.10;;;;;;;;;;5035166;28;20205;-67
2023/08/22 00:44:42;;;;;;;11.77;8.30;;;;;;;;;;5052674;28;20690;-68
2023/08/22 00:47:08;;;;;;;16.20;8.10;;;;;;;;;;5052819;28;20178;-68
2023/08/22 00:49:34;;;;;;;14.53;8.10;;;;;;;;;;5052682;28;20178;-66
2023/08/22 00:52:01;;;;;;;17.77;8.00;;;;;;;;;;5052572;28;20279;-67
2023/08/22 00:54:29;;;;;;;10.13;7.43;;;;;;;;;;5052799;28;20265;-68
2023/08/22 00:56:56;;;;;;;8.37;7.20;;;;;;;;;;5034901;28;20192;-67
2023/08/22 00:59:22;;;;;;;15.10;8.47;;;;;;;;;;5053635;28;20636;-67
2023/08/22 01:01:48;;;;;;;13.33;8.47;;;;;;;;;;5035375;28;20574;-68
2023/08/22 01:04:14;;;;;;;11.40;8.30;;;;;;;;;;5034597;28;20209;-65
2023/08/22 01:06:43;;;;;;;12.43;8.53;;;;;;;;;;5052674;28;20179;-65
2023/08/22 01:09:17;;;;;;;15.13;9.03;;;;;;;;;;5034548;28;20209;-65
2023/08/22 01:11:45;;;;;;;10.63;8.03;;;;;;;;;;5034547;28;20190;-65
2023/08/22 01:14:14;;;;;;;12.37;8.40;;;;;;;;;;5034529;28;20182;-65
2023/08/22 01:16:40;;;;;;;11.27;7.97;;;;;;;;;;5034595;28;20288;-65
2023/08/22 01:19:08;;;;;;;10.60;8.03;;;;;;;;;;5052936;28;20179;-67
2023/08/22 01:21:35;;;;;;;14.80;7.70;;;;;;;;;;5052943;28;20206;-66
2023/08/22 01:24:03;;;;;;;9.87;7.90;;;;;;;;;;5038355;28;20223;-66
2023/08/22 01:26:29;;;;;;;10.37;8.07;;;;;;;;;;5038201;28;20236;-66
2023/08/22 01:28:58;;;;;;;10.03;8.23;;;;;;;;;;5038317;28;20182;-66
2023/08/22 01:31:33;;;;;;;16.13;9.30;;;;;;;;;;5055967;28;20195;-66
2023/08/22 01:34:04;;;;;;;11.63;8.13;;;;;;;;;;5038412;28;20185;-65
2023/08/22 01:36:30;;;;;;;12.97;9.60;;;;;;;;;;5038212;28;20183;-66
2023/08/22 01:38:57;;;;;;;14.00;9.37;;;;;;;;;;5056581;28;20232;-66
2023/08/22 01:41:24;;;;;;;11.07;8.37;;;;;;;;;;5055991;28;20202;-66
2023/08/22 01:43:50;;;;;;;15.70;9.07;;;;;;;;;;5055896;28;20206;-66
2023/08/22 01:46:16;;;;;;;15.73;8.93;;;;;;;;;;5038020;28;20179;-66
2023/08/22 01:48:42;;;;;;;13.23;9.20;;;;;;;;;;5055808;28;20170;-66
2023/08/22 01:51:08;;;;;;;12.03;8.67;;;;;;;;;;5037588;28;20206;-66
2023/08/22 01:53:34;;;;;;;11.20;8.23;;;;;;;;;;5055637;28;20182;-65
2023/08/22 01:56:00;;;;;;;12.20;8.43;;;;;;;;;;5055772;28;20179;-66
2023/08/22 01:58:26;;;;;;;16.27;9.80;;;;;;;;;;5055622;28;20183;-66
2023/08/22 02:00:52;;;;;;;11.47;8.57;;;;;;;;;;5037482;28;20182;-66
2023/08/22 02:03:20;;;;;;;14.07;9.30;;;;;;;;;;5055353;28;20182;-65
2023/08/22 02:05:47;;;;;;;11.87;9.03;;;;;;;;;;5055806;28;20687;-65
2023/08/22 02:08:13;;;;;;;15.37;9.87;;;;;;;;;;5037661;28;20189;-66
2023/08/22 02:10:38;;;;;;;16.73;9.50;;;;;;;;;;5055330;28;20270;-67
2023/08/22 02:13:04;;;;;;;12.53;9.70;;;;;;;;;;5055326;28;20186;-65
2023/08/22 02:15:31;;;;;;;12.50;9.00;;;;;;;;;;5037335;28;20184;-66
2023/08/22 02:17:57;;;;;;;16.17;9.27;;;;;;;;;;5055509;28;20197;-66
2023/08/22 02:20:23;;;;;;;16.60;10.47;;;;;;;;;;5055238;28;20179;-66
2023/08/22 02:22:49;;;;;;;9.90;8.57;;;;;;;;;;5037254;28;20255;-66
2023/08/22 02:25:15;;;;;;;14.87;10.20;;;;;;;;;;5055129;28;20240;-66
2023/08/22 02:27:41;;;;;;;11.77;8.97;;;;;;;;;;5037234;28;20186;-66
2023/08/22 02:30:07;;;;;;;13.40;9.03;;;;;;;;;;5055116;28;20179;-65
2023/08/22 02:32:33;;;;;;;12.17;9.67;;;;;;;;;;5054599;28;20710;-66
2023/08/22 02:34:59;;;;;;;17.30;9.83;;;;;;;;;;5036972;28;20193;-65
2023/08/22 02:37:25;;;;;;;12.03;9.77;;;;;;;;;;5055007;28;20178;-65
2023/08/22 02:39:54;;;;;;;16.33;10.40;;;;;;;;;;5054771;28;20257;-66
2023/08/22 02:42:20;;;;;;;12.90;10.77;;;;;;;;;;5036791;28;20209;-66
2023/08/22 02:44:46;;;;;;;17.53;11.03;;;;;;;;;;5036782;28;20202;-66
2023/08/22 02:47:11;;;;;;;14.13;10.27;;;;;;;;;;5054710;28;20171;-66
2023/08/22 02:49:37;;;;;;;19.03;11.67;;;;;;;;;;5054924;28;20543;-66
2023/08/22 02:52:03;;;;;;;15.60;9.80;;;;;;;;;;5054399;28;20605;-65
2023/08/22 02:54:29;;;;;;;16.33;10.13;;;;;;;;;;5055068;22;20245;-68
2023/08/22 02:56:55;;;;;;;16.70;10.30;;;;;;;;;;5016820;28;20183;-67
2023/08/22 02:59:21;;;;;;;16.80;11.10;;;;;;;;;;5035075;28;20635;-68
2023/08/22 03:01:47;;;;;;;14.00;10.40;;;;;;;;;;5035264;28;20560;-68
2023/08/22 03:04:13;;;;;;;15.33;10.83;;;;;;;;;;5034580;28;20286;-66
2023/08/22 03:06:39;;;;;;;14.37;11.00;;;;;;;;;;5016955;28;20626;-66
2023/08/22 03:09:05;;;;;;;14.83;10.40;;;;;;;;;;5034965;28;20188;-67
2023/08/22 03:11:31;;;;;;;18.83;12.00;;;;;;;;;;5034517;28;20171;-66
2023/08/22 03:13:57;;;;;;;16.17;12.17;;;;;;;;;;5034244;28;20691;-66
2023/08/22 03:16:23;;;;;;;12.80;10.23;;;;;;;;;;5035064;28;20179;-67
2023/08/22 03:18:49;;;;;;;16.50;10.83;;;;;;;;;;5035413;28;20221;-67
2023/08/22 03:21:15;;;;;;;17.17;12.17;;;;;;;;;;5035054;28;20190;-68
2023/08/22 03:23:41;;;;;;;15.53;12.10;;;;;;;;;;5034670;28;20203;-67
2023/08/22 03:26:10;;;;;;;18.27;12.47;;;;;;;;;;5034867;28;20259;-67
2023/08/22 03:28:36;;;;;;;21.53;13.37;;;;;;;;;;5016538;28;20269;-67
2023/08/22 03:31:03;;;;;;;19.60;15.20;;;;;;;;;;5034490;28;20187;-67
2023/08/22 03:33:29;;;;;;;20.27;15.13;;;;;;;;;;5016398;28;20203;-66
2023/08/22 03:35:55;;;;;;;19.80;14.83;;;;;;;;;;5034460;28;20183;-68
2023/08/22 03:38:21;;;;;;;21.83;16.60;;;;;;;;;;5034103;28;20269;-67
2023/08/22 03:40:48;;;;;;;32.03;16.00;;;;;;;;;;5034174;28;20179;-67
2023/08/22 03:43:15;;;;;;;17.33;14.37;;;;;;;;;;5016254;28;20203;-67
2023/08/22 03:45:41;;;;;;;19.67;14.87;;;;;;;;;;5033385;28;20246;-67
2023/08/22 03:48:07;;;;;;;23.23;18.13;;;;;;;;;;5032933;28;20379;-67
2023/08/22 03:50:34;;;;;;;24.33;19.20;;;;;;;;;;5016776;28;20386;-67
2023/08/22 03:53:00;;;;;;;25.10;18.67;;;;;;;;;;5014713;28;20410;-67
2023/08/22 03:55:26;;;;;;;23.13;18.95;;;;;;;;;;5014744;28;20395;-66
2023/08/22 03:57:52;;;;;;;26.75;19.70;;;;;;;;;;5014873;28;20386;-67
2023/08/22 04:00:18;;;;;;;28.00;21.35;;;;;;;;;;5032656;28;20445;-67
2023/08/22 04:02:44;;;;;;;24.08;16.90;;;;;;;;;;5032691;28;20483;-67
2023/08/22 04:05:10;;;;;;;22.92;16.55;;;;;;;;;;5032512;28;20509;-67
2023/08/22 04:07:36;;;;;;;21.50;16.40;;;;;;;;;;5032430;28;20379;-67
2023/08/22 04:10:02;;;;;;;18.83;16.52;;;;;;;;;;5032721;28;20382;-67
2023/08/22 04:12:28;;;;;;;20.42;16.42;;;;;;;;;;5014789;28;20772;-67
2023/08/22 04:14:54;;;;;;;28.10;21.00;;;;;;;;;;5032386;28;20391;-67
2023/08/22 04:17:20;;;;;;;24.58;20.73;;;;;;;;;;5032793;28;20395;-67
2023/08/22 04:19:46;;;;;;;20.58;15.43;;;;;;;;;;5032442;28;20391;-67
2023/08/22 04:22:12;;;;;;;17.58;15.10;;;;;;;;;;5032503;28;20433;-67
2023/08/22 04:24:38;;;;;;;18.63;15.40;;;;;;;;;;5014576;28;20407;-66
2023/08/22 04:27:04;;;;;;;17.27;14.98;;;;;;;;;;5032527;28;20833;-67
2023/08/22 04:29:30;;;;;;;20.52;18.33;;;;;;;;;;5032155;28;20428;-67
2023/08/22 04:31:58;;;;;;;24.20;19.83;;;;;;;;;;5032463;28;20384;-66
2023/08/22 04:34:24;;;;;;;26.00;18.13;;;;;;;;;;5032308;28;20386;-67
2023/08/22 04:36:50;;;;;;;26.42;22.00;;;;;;;;;;5015178;28;20486;-67
2023/08/22 04:39:16;;;;;;;18.92;16.25;;;;;;;;;;5014627;28;20390;-67
2023/08/22 04:41:43;;;;;;;21.08;17.08;;;;;;;;;;5032362;28;20391;-68
2023/08/22 04:44:08;;;;;;;23.30;19.38;;;;;;;;;;5014397;28;20486;-68
2023/08/22 04:46:34;;;;;;;21.40;17.95;;;;;;;;;;5014386;28;20494;-67
2023/08/22 04:49:00;;;;;;;27.93;20.20;;;;;;;;;;5032140;28;20861;-67
2023/08/22 04:51:26;;;;;;;22.10;19.23;;;;;;;;;;5032170;28;20382;-67
2023/08/22 04:53:53;;;;;;;21.08;18.58;;;;;;;;;;5031929;28;20391;-67
2023/08/22 04:56:19;;;;;;;20.55;17.20;;;;;;;;;;5016235;28;20831;-67
2023/08/22 04:58:45;;;;;;;22.83;17.38;;;;;;;;;;5018267;28;20383;-68
2023/08/22 05:01:11;;;;;;;20.03;17.90;;;;;;;;;;5036474;28;20738;-66
2023/08/22 05:03:37;;;;;;;20.85;17.98;;;;;;;;;;5035880;28;20482;-67
2023/08/22 05:06:03;;;;;;;21.23;18.08;;;;;;;;;;5035983;28;20379;-67
2023/08/22 05:08:29;;;;;;;21.27;17.85;;;;;;;;;;5035638;28;20375;-68
2023/08/22 05:10:55;;;;;;;20.38;17.60;;;;;;;;;;5036452;28;20718;-68
2023/08/22 05:13:21;;;;;;;24.70;17.60;;;;;;;;;;5035592;28;20756;-67
2023/08/22 05:15:47;;;;;;;19.65;17.50;;;;;;;;;;5035723;28;20747;-68
2023/08/22 05:18:13;;;;;;;20.35;18.17;;;;;;;;;;5035556;28;20433;-68
2023/08/22 05:20:42;;;;;;;20.10;17.73;;;;;;;;;;5018275;28;20481;-68
2023/08/22 05:23:08;;;;;;;21.85;18.33;;;;;;;;;;5035773;28;20379;-66
2023/08/22 05:25:34;;;;;;;21.75;19.38;;;;;;;;;;5020508;28;20962;-68
2023/08/22 05:28:00;;;;;;;20.80;18.52;;;;;;;;;;5051392;28;20383;-68
2023/08/22 05:30:26;;;;;;;23.75;19.20;;;;;;;;;;5051608;28;20398;-68
2023/08/22 05:32:52;;;;;;;23.13;19.95;;;;;;;;;;5044407;28;20866;-68
2023/08/22 05:35:18;;;;;;;26.33;21.23;;;;;;;;;;5018100;28;20406;-68
2023/08/22 05:37:44;;;;;;;22.05;19.50;;;;;;;;;;5035544;28;20919;-68
2023/08/22 05:40:11;;;;;;;20.60;17.48;;;;;;;;;;5017513;28;20948;-68
2023/08/22 05:42:37;;;;;;;21.92;17.48;;;;;;;;;;5035247;28;20395;-68
2023/08/22 05:45:03;;;;;;;18.42;16.33;;;;;;;;;;5017398;28;20414;-68
2023/08/22 05:47:29;;;;;;;21.73;17.70;;;;;;;;;;5035580;28;20884;-67
2023/08/22 05:49:55;;;;;;;20.48;16.63;;;;;;;;;;5034865;28;20517;-68
2023/08/22 05:52:25;;;;;;;;;;;;;;;;;;5036166;28;20060;-68
2023/08/22 05:54:50;;;;;;;17.10;13.93;;;;;;;;;;5035466;28;20264;-67
2023/08/22 05:57:16;;;;;;;20.50;14.00;;;;;;;;;;5035545;28;20187;-68
2023/08/22 05:59:42;;;;;;;17.87;13.77;;;;;;;;;;5017675;28;20179;-68
2023/08/22 06:02:08;;;;;;;19.83;13.80;;;;;;;;;;5035338;28;20237;-68
2023/08/22 06:04:34;;;;;;;22.13;14.00;;;;;;;;;;5017487;28;20700;-67
2023/08/22 06:07:00;;;;;;;19.47;14.97;;;;;;;;;;5035138;28;20179;-68
2023/08/22 06:09:26;;;;;;;23.37;15.80;;;;;;;;;;5035080;28;20270;-68
2023/08/22 06:11:52;;;;;;;27.83;15.50;;;;;;;;;;5035091;28;20517;-68
2023/08/22 06:14:18;;;;;;;23.73;14.63;;;;;;;;;;5035050;28;20203;-68
2023/08/22 06:16:44;;;;;;;33.87;16.33;;;;;;;;;;5017231;28;20183;-68
2023/08/22 06:19:11;;;;;;;26.80;16.97;;;;;;;;;;5035303;28;20207;-68
2023/08/22 06:21:37;;;;;;;32.30;16.07;;;;;;;;;;5017182;28;20278;-68
2023/08/22 06:24:04;;;;;;;27.67;16.30;;;;;;;;;;5017174;28;20332;-67
2023/08/22 06:26:30;;;;;;;30.43;17.93;;;;;;;;;;5035218;28;20167;-68
2023/08/22 06:28:56;;;;;;;24.67;16.67;;;;;;;;;;5034793;28;20178;-68
2023/08/22 06:31:23;;;;;;;22.60;16.40;;;;;;;;;;5017021;28;20203;-67
2023/08/22 06:33:48;;;;;;;29.87;16.30;;;;;;;;;;5018367;28;20249;-67
2023/08/22 06:36:14;;;;;;;25.17;16.50;;;;;;;;;;5036414;28;20183;-67
2023/08/22 06:38:40;;;;;;;20.13;16.30;;;;;;;;;;5037114;28;20238;-67
2023/08/22 06:41:07;;;;;;;21.37;15.17;;;;;;;;;;5036270;28;20202;-66
2023/08/22 06:43:33;;;;;;;25.33;16.03;;;;;;;;;;5036047;28;20206;-67
2023/08/22 06:45:59;;;;;;;25.17;16.13;;;;;;;;;;5035598;28;20248;-67
2023/08/22 06:48:26;;;;;;;28.17;17.23;;;;;;;;;;5035192;28;20697;-67
2023/08/22 06:50:52;;;;;;;31.40;16.57;;;;;;;;;;5016644;28;20179;-68
2023/08/22 06:53:19;;;;;;;24.10;14.67;;;;;;;;;;5034212;28;20297;-67
2023/08/22 06:55:48;;;;;;;30.03;16.70;;;;;;;;;;5034342;28;20186;-68
2023/08/22 06:58:15;;;;;;;23.37;15.93;;;;;;;;;;5034576;28;20183;-68
2023/08/22 07:00:41;;;;;;;29.50;15.77;;;;;;;;;;5034590;28;20676;-68
2023/08/22 07:03:07;;;;;;;29.27;15.43;;;;;;;;;;5034060;28;20235;-67
2023/08/22 07:05:36;;;;;;;23.70;15.57;;;;;;;;;;5034177;28;20206;-68
2023/08/22 07:08:02;;;;;;;27.03;16.73;;;;;;;;;;5034076;28;20202;-67
2023/08/22 07:10:28;;;;;;;29.17;15.77;;;;;;;;;;5016258;28;20705;-68
2023/08/22 07:12:54;;;;;;;28.73;16.20;;;;;;;;;;5033989;28;20222;-68
2023/08/22 07:15:21;;;;;;;23.20;15.33;;;;;;;;;;5034250;28;20538;-68
2023/08/22 07:17:47;;;;;;;29.27;15.63;;;;;;;;;;5034436;28;20206;-68
2023/08/22 07:20:13;;;;;;;33.03;15.90;;;;;;;;;;5033284;28;20179;-68
2023/08/22 07:22:39;;;;;;;31.53;17.10;;;;;;;;;;5033620;28;20179;-68
2023/08/22 07:25:05;;;;;;;31.63;16.27;;;;;;;;;;5033896;28;20206;-68
2023/08/22 07:27:31;;;;;;;29.17;16.07;;;;;;;;;;5033654;28;20171;-68
2023/08/22 07:29:57;;;;;;;33.00;16.90;;;;;;;;;;5033770;28;20190;-68
2023/08/22 07:32:23;;;;;;;29.90;15.23;;;;;;;;;;5033623;28;20175;-67
2023/08/22 07:34:49;;;;;;;28.60;15.30;;;;;;;;;;5033557;28;20341;-67
2023/08/22 07:37:16;;;;;;;30.53;15.13;;;;;;;;;;5033537;28;20206;-68
2023/08/22 07:39:42;;;;;;;22.90;14.67;;;;;;;;;;5033411;28;20185;-68
2023/08/22 07:42:16;;;;;;;23.10;13.43;;;;;;;;;;5070717;28;21049;-67
2023/08/22 07:44:42;;;;;;;23.97;14.40;;;;;;;;;;5068578;28;20252;-68
2023/08/22 07:47:08;;;;;;;24.80;14.37;;;;;;;;;;5070068;28;20170;-68
2023/08/22 07:49:34;;;;;;;22.60;14.30;;;;;;;;;;5069852;28;20178;-68
2023/08/22 07:52:00;;;;;;;22.47;11.73;;;;;;;;;;5068402;28;20178;-67
2023/08/22 07:54:25;;;;;;;23.77;11.67;;;;;;;;;;5069795;28;20224;-68
2023/08/22 07:56:51;;;;;;;15.27;8.40;;;;;;;;;;5069793;28;20633;-67
2023/08/22 07:59:17;;;;;;;18.53;8.87;;;;;;;;;;5069586;28;20181;-67
2023/08/22 08:01:44;;;;;;;16.10;8.97;;;;;;;;;;5068104;28;20198;-67
2023/08/22 08:04:10;;;;;;;23.27;9.83;;;;;;;;;;5069576;28;20197;-67
2023/08/22 08:06:36;;;;;;;19.90;10.97;;;;;;;;;;5068215;28;20178;-68
2023/08/22 08:09:06;;;;;;;20.70;10.67;;;;;;;;;;5069697;28;20174;-67
2023/08/22 08:11:32;;;;;;;14.63;10.83;;;;;;;;;;5069596;28;20173;-68
2023/08/22 08:13:58;;;;;;;18.70;10.03;;;;;;;;;;5067973;28;20210;-67
2023/08/22 08:16:24;;;;;;;16.97;8.70;;;;;;;;;;5069562;28;20536;-67
2023/08/22 08:18:52;;;;;;;13.13;7.80;;;;;;;;;;5069524;28;20178;-67
2023/08/22 08:21:18;;;;;;;13.07;7.90;;;;;;;;;;5069069;28;20209;-67
2023/08/22 08:23:44;;;;;;;15.67;8.30;;;;;;;;;;5069106;28;20226;-67
2023/08/22 08:26:11;;;;;;;19.00;8.70;;;;;;;;;;5067804;28;20174;-67
2023/08/22 08:28:36;;;;;;;14.00;8.37;;;;;;;;;;5069378;28;20546;-67
2023/08/22 08:31:02;;;;;;;14.73;7.83;;;;;;;;;;5069079;28;20178;-67
2023/08/22 08:33:28;;;;;;;10.17;6.87;;;;;;;;;;5069186;28;20198;-67
2023/08/22 08:35:54;;;;;;;12.90;7.50;;;;;;;;;;5069097;28;20217;-67
2023/08/22 08:38:20;;;;;;;13.83;6.80;;;;;;;;;;5068879;28;20174;-67
2023/08/22 08:40:46;;;;;;;9.43;5.23;;;;;;;;;;5067323;28;20209;-68
2023/08/22 08:43:12;;;;;;;7.73;5.33;;;;;;;;;;5068789;28;20198;-67
2023/08/22 08:45:40;;;;;;;12.93;5.83;;;;;;;;;;5068970;28;20551;-67
2023/08/22 08:48:06;;;;;;;11.93;5.43;;;;;;;;;;5069136;28;20228;-67
2023/08/22 08:50:33;;;;;;;11.50;4.37;;;;;;;;;;5068599;28;20244;-68
2023/08/22 08:52:59;;;;;;;8.00;4.40;;;;;;;;;;5059068;28;20195;-67
2023/08/22 08:55:25;;;;;;;9.40;4.50;;;;;;;;;;5084371;22;20231;-67
2023/08/22 08:57:56;;;;;;;10.93;5.30;;;;;;;;;;5034492;28;20219;-67
2023/08/22 09:00:22;;;;;;;10.80;4.17;;;;;;;;;;5035736;28;20199;-68
2023/08/22 09:02:48;;;;;;;13.67;5.03;;;;;;;;;;5035569;28;20182;-67
2023/08/22 09:05:15;;;;;;;12.03;5.90;;;;;;;;;;5035721;28;20234;-67
2023/08/22 09:07:44;;;;;;;13.50;5.50;;;;;;;;;;5035871;28;20237;-66
2023/08/22 09:10:10;;;;;;;9.97;4.67;;;;;;;;;;5035687;28;20190;-66
2023/08/22 09:13:17;;;;;;;14.00;4.73;;;;;;;;;;5037264;28;20178;-68
2023/08/22 09:15:43;;;;;;;8.20;4.40;;;;;;;;;;5034357;28;20206;-67
2023/08/22 09:18:14;;;;;;;8.90;4.40;;;;;;;;;;5035280;28;20183;-67
2023/08/22 09:20:45;;;;;;;14.27;4.43;;;;;;;;;;5033899;28;20207;-68
2023/08/22 09:23:19;;;;;;;12.87;5.67;;;;;;;;;;5035400;28;20165;-67
2023/08/22 09:25:45;;;;;;;11.07;4.90;;;;;;;;;;5035219;28;20191;-68
2023/08/22 09:28:11;;;;;;;9.97;6.10;;;;;;;;;;5033756;28;20189;-67
2023/08/22 09:30:37;;;;;;;9.77;5.70;;;;;;;;;;5033743;28;20183;-68
2023/08/22 09:33:03;;;;;;;8.17;5.57;;;;;;;;;;5034930;28;20190;-67
2023/08/22 09:35:30;;;;;;;9.87;6.40;;;;;;;;;;5035303;28;20206;-67
2023/08/22 09:38:05;;;;;;;12.27;5.63;;;;;;;;;;5034867;28;20194;-67
2023/08/22 09:40:30;;;;;;;9.27;5.63;;;;;;;;;;5035045;28;20198;-67
2023/08/22 09:42:56;;;;;;;13.63;5.63;;;;;;;;;;5033603;28;20185;-68
2023/08/22 09:45:23;;;;;;;10.30;5.40;;;;;;;;;;5034791;28;20227;-68
2023/08/22 09:47:49;;;;;;;10.53;4.87;;;;;;;;;;5034134;28;20202;-67
2023/08/22 09:50:17;;;;;;;10.57;5.30;;;;;;;;;;5039003;28;20271;-68
2023/08/22 09:52:43;;;;;;;12.27;5.47;;;;;;;;;;5034524;28;20555;-68
2023/08/22 09:55:11;;;;;;;10.50;4.37;;;;;;;;;;5033349;28;20219;-67
2023/08/22 09:57:38;;;;;;;12.07;4.03;;;;;;;;;;5034685;28;20590;-67
2023/08/22 10:00:05;;;;;;;9.30;3.27;;;;;;;;;;5034768;28;20186;-66
2023/08/22 10:02:33;;;;;;;8.90;3.47;;;;;;;;;;5033209;28;20202;-66
2023/08/22 10:05:00;;;;;;;7.57;3.57;;;;;;;;;;5033592;28;20207;-67
2023/08/22 10:07:26;;;;;;;5.37;3.23;;;;;;;;;;5033222;28;20629;-68
2023/08/22 10:09:53;;;;;;;9.53;3.90;;;;;;;;;;5034380;28;20200;-67
2023/08/22 10:12:19;;;;;;;6.80;3.50;;;;;;;;;;5033038;28;20673;-67
2023/08/22 10:14:50;;;;;;;9.93;4.07;;;;;;;;;;5032809;28;20202;-67
2023/08/22 10:17:16;;;;;;;10.03;4.30;;;;;;;;;;5034231;28;20596;-68
2023/08/22 10:19:42;;;;;;;11.93;4.13;;;;;;;;;;5032766;28;20229;-67
2023/08/22 10:22:15;;;;;;;8.13;4.40;;;;;;;;;;5033956;28;20209;-67
2023/08/22 10:24:41;;;;;;;7.47;3.70;;;;;;;;;;5034232;28;20245;-67
2023/08/22 10:27:07;;;;;;;7.97;4.40;;;;;;;;;;5034140;28;20218;-67
2023/08/22 10:29:35;;;;;;;7.43;4.30;;;;;;;;;;5032481;28;20183;-68
2023/08/22 10:32:01;;;;;;;8.17;3.50;;;;;;;;;;5032631;28;20190;-67
2023/08/22 10:34:27;;;;;;;7.87;4.30;;;;;;;;;;5033954;28;20203;-68
2023/08/22 10:36:56;;;;;;;6.60;3.57;;;;;;;;;;5033899;28;20183;-67
2023/08/22 10:39:38;;;;;;;4.90;3.03;;;;;;;;;;5033940;28;20659;-67
2023/08/22 10:42:05;;;;;;;5.80;3.60;;;;;;;;;;5032243;28;20222;-67
2023/08/22 10:44:31;;;;;;;6.97;4.17;;;;;;;;;;5033679;28;20202;-67
2023/08/22 10:47:01;;;;;;;6.20;3.40;;;;;;;;;;5033671;28;20182;-66
2023/08/22 10:49:34;;;;;;;11.07;4.80;;;;;;;;;;5033538;28;20178;-67
2023/08/22 10:52:07;;;;;;;13.47;4.60;;;;;;;;;;5033420;28;20180;-67
2023/08/22 10:54:54;;;;;;;9.93;4.80;;;;;;;;;;5033216;28;20206;-67
2023/08/22 10:57:20;;;;;;;8.77;4.83;;;;;;;;;;5022981;28;20572;-67
2023/08/22 11:00:07;;;;;;;9.47;5.70;;;;;;;;;;5033246;28;20624;-67
2023/08/22 11:02:33;;;;;;;6.47;4.60;;;;;;;;;;5033544;28;20182;-67
2023/08/22 11:05:01;;;;;;;9.90;5.07;;;;;;;;;;5033206;28;20202;-67
2023/08/22 11:07:27;;;;;;;7.57;4.47;;;;;;;;;;5031816;28;20179;-67
2023/08/22 11:09:54;;;;;;;12.73;4.67;;;;;;;;;;5031885;28;20265;-67
2023/08/22 11:12:21;;;;;;;7.67;4.87;;;;;;;;;;5031824;28;20270;-66
2023/08/22 11:14:47;;;;;;;10.97;4.60;;;;;;;;;;5032772;28;20199;-67
2023/08/22 11:17:14;;;;;;;13.13;4.43;;;;;;;;;;5031805;28;20187;-68
2023/08/22 11:19:40;;;;;;;7.97;4.23;;;;;;;;;;5033095;28;20194;-67
2023/08/22 11:22:07;;;;;;;9.63;3.90;;;;;;;;;;5032949;28;20207;-67
2023/08/22 11:24:32;;;;;;;7.30;4.00;;;;;;;;;;5033163;28;20548;-67
2023/08/22 11:27:04;;;;;;;6.07;3.80;;;;;;;;;;5032026;28;20258;-67
2023/08/22 11:29:39;;;;;;;11.60;4.07;;;;;;;;;;5032876;28;20202;-67
2023/08/22 11:32:19;;;;;;;10.47;4.83;;;;;;;;;;5033108;28;20166;-67
2023/08/22 11:34:46;;;;;;;7.10;4.47;;;;;;;;;;5033121;28;20552;-66
2023/08/22 11:37:12;;;;;;;11.03;4.30;;;;;;;;;;5032906;28;20167;-66
2023/08/22 11:39:38;;;;;;;8.70;4.40;;;;;;;;;;5037244;28;20182;-67
2023/08/22 11:42:04;;;;;;;7.63;4.50;;;;;;;;;;5033737;28;20256;-66
2023/08/22 11:44:30;;;;;;;7.10;4.03;;;;;;;;;;5031584;28;20747;-66
2023/08/22 11:46:58;;;;;;;7.40;4.30;;;;;;;;;;5032973;28;20264;-66
2023/08/22 11:49:24;;;;;;;5.27;3.90;;;;;;;;;;5032941;28;20195;-67
2023/08/22 11:51:54;;;;;;;7.80;5.23;;;;;;;;;;5032759;28;20581;-67
2023/08/22 11:54:23;;;;;;;15.03;5.00;;;;;;;;;;5032786;28;20202;-66
2023/08/22 11:56:49;;;;;;;9.07;4.77;;;;;;;;;;5033558;28;20167;-67
2023/08/22 11:59:15;;;;;;;7.33;5.27;;;;;;;;;;5031660;28;20641;-66
2023/08/22 12:01:41;;;;;;;8.00;6.40;;;;;;;;;;5033109;28;20203;-67
2023/08/22 12:04:07;;;;;;;11.63;6.30;;;;;;;;;;5033058;28;20638;-67
2023/08/22 12:06:33;;;;;;;19.33;5.97;;;;;;;;;;5031452;28;20191;-66
2023/08/22 12:09:00;;;;;;;9.17;5.90;;;;;;;;;;5033988;28;20692;-66
2023/08/22 12:11:26;;;;;;;8.37;5.87;;;;;;;;;;5033521;28;20254;-66
2023/08/22 12:13:53;;;;;;;8.50;6.03;;;;;;;;;;5033906;28;20633;-65
2023/08/22 12:16:19;;;;;;;10.20;6.10;;;;;;;;;;5033126;28;20273;-65
2023/08/22 12:18:45;;;;;;;13.33;7.23;;;;;;;;;;5033018;28;20549;-65
2023/08/22 12:21:11;;;;;;;17.10;8.73;;;;;;;;;;5033015;28;20206;-65
2023/08/22 12:23:37;;;;;;;11.67;6.03;;;;;;;;;;5031547;28;20175;-66
2023/08/22 12:26:03;;;;;;;9.27;5.53;;;;;;;;;;5032442;28;20199;-66
2023/08/22 12:28:29;;;;;;;10.47;5.77;;;;;;;;;;5035124;28;20182;-66
2023/08/22 12:30:55;;;;;;;7.55;3.90;;;;;;;;;;5036327;28;20661;-66
2023/08/22 12:33:21;;;;;;;9.83;4.00;;;;;;;;;;5036043;28;20180;-66
2023/08/22 12:35:47;;;;;;;9.40;3.43;;;;;;;;;;5038016;28;20210;-66
2023/08/22 12:38:13;;;;;;;7.28;4.00;;;;;;;;;;5036707;28;20262;-66
2023/08/22 12:40:39;;;;;;;7.30;4.20;;;;;;;;;;5036187;28;20337;-66
2023/08/22 12:43:05;;;;;;;9.00;4.30;;;;;;;;;;5034683;28;20183;-65
2023/08/22 12:45:31;;;;;;;6.60;3.93;;;;;;;;;;5034528;28;20199;-65
2023/08/22 12:47:57;;;;;;;8.90;3.53;;;;;;;;;;5035967;28;20526;-66
2023/08/22 12:50:24;;;;;;;9.90;3.70;;;;;;;;;;5035861;28;20210;-65
2023/08/22 12:52:50;;;;;;;8.63;3.70;;;;;;;;;;5034557;28;20269;-65
2023/08/22 12:55:18;;;;;;;6.77;3.57;;;;;;;;;;5035753;28;20253;-66
2023/08/22 12:57:44;;;;;;;6.97;3.90;;;;;;;;;;5036405;28;20210;-67
2023/08/22 13:00:11;;;;;;;10.73;4.60;;;;;;;;;;5034647;28;20215;-68
2023/08/22 13:02:37;;;;;;;6.73;3.37;;;;;;;;;;5036054;28;20599;-68
2023/08/22 13:05:03;;;;;;;7.80;3.60;;;;;;;;;;5035494;28;20241;-67
2023/08/22 13:07:29;;;;;;;7.60;4.10;;;;;;;;;;5035596;28;20211;-66
2023/08/22 13:09:55;;;;;;;7.40;4.47;;;;;;;;;;5035779;28;20175;-67
2023/08/22 13:12:21;;;;;;;7.80;3.97;;;;;;;;;;5035463;28;20653;-66
2023/08/22 13:14:47;;;;;;;5.33;3.43;;;;;;;;;;5035180;28;20199;-67
2023/08/22 13:17:13;;;;;;;6.77;4.23;;;;;;;;;;5034068;28;20190;-67
2023/08/22 13:19:39;;;;;;;8.57;4.07;;;;;;;;;;5035288;28;20672;-67
2023/08/22 13:22:05;;;;;;;9.00;4.97;;;;;;;;;;5035334;28;20614;-67
2023/08/22 13:24:31;;;;;;;12.13;5.37;;;;;;;;;;5035134;28;20284;-67
2023/08/22 13:26:57;;;;;;;7.88;4.97;;;;;;;;;;5032674;28;20487;-67
2023/08/22 13:29:24;;;;;;;10.45;4.97;;;;;;;;;;5034214;28;20379;-66
2023/08/22 13:31:50;;;;;;;11.10;5.38;;;;;;;;;;5036080;28;20792;-66
2023/08/22 13:34:17;;;;;;;9.57;6.38;;;;;;;;;;5033797;28;20467;-66
2023/08/22 13:36:43;;;;;;;9.73;6.20;;;;;;;;;;5034129;28;20414;-66
2023/08/22 13:39:10;;;;;;;10.18;6.10;;;;;;;;;;5034073;28;20870;-67
2023/08/22 13:41:36;;;;;;;10.90;6.35;;;;;;;;;;5032443;28;20476;-66
2023/08/22 13:44:02;;;;;;;8.70;5.32;;;;;;;;;;5034025;28;20379;-66
2023/08/22 13:46:28;;;;;;;8.35;6.40;;;;;;;;;;5032434;28;20889;-67
2023/08/22 13:48:54;;;;;;;11.83;5.90;;;;;;;;;;5033615;28;20387;-66
2023/08/22 13:51:20;;;;;;;11.07;6.30;;;;;;;;;;5032357;28;20395;-67
2023/08/22 13:53:46;;;;;;;12.07;6.38;;;;;;;;;;5032221;28;20387;-67
2023/08/22 13:56:13;;;;;;;9.55;6.07;;;;;;;;;;5033445;28;20406;-66
2023/08/22 13:58:39;;;;;;;11.15;5.72;;;;;;;;;;5033276;28;20807;-66
2023/08/22 14:01:05;;;;;;;8.87;5.90;;;;;;;;;;5032033;28;20422;-67
2023/08/22 14:03:31;;;;;;;10.63;5.60;;;;;;;;;;5033323;28;20462;-66
2023/08/22 14:05:57;;;;;;;11.20;5.83;;;;;;;;;;5033473;28;20517;-66
2023/08/22 14:08:23;;;;;;;9.52;5.57;;;;;;;;;;5033297;28;20417;-67
2023/08/22 14:10:49;;;;;;;8.85;5.38;;;;;;;;;;5033432;28;20387;-66
2023/08/22 14:13:15;;;;;;;10.45;5.25;;;;;;;;;;5033061;28;20383;-66
2023/08/22 14:15:41;;;;;;;10.35;4.72;;;;;;;;;;5031720;28;20437;-66
2023/08/22 14:18:08;;;;;;;10.05;4.75;;;;;;;;;;5031910;28;20387;-66
2023/08/22 14:20:34;;;;;;;7.47;4.60;;;;;;;;;;5032958;28;20824;-66
2023/08/22 14:23:01;;;;;;;9.68;4.57;;;;;;;;;;5033241;28;20378;-66
2023/08/22 14:25:27;;;;;;;7.78;4.68;;;;;;;;;;5032945;28;20379;-65